Portada
METAR-TAF:

METAR-TAF

Aeropuertos :

Gafsa, Túnez

latitud: 34-25N, longitud: 008-49E, altitud: 313 m

Observación

El informe se hizo hace 16 minutos, a las 09:00 UTC
Viento 6 kt del noreste, variando entre norte y este
Temperatura 26°C
Humedad 54%
Presión 1014 hPa
Visibilidad: 6000 m
Nubes dispersas a una altura de 3300 ft

METAR: DTTF 180900Z 04006KT 360V080 6000 SCT033 26/16 Q1014

Hora: 10:16 (09:16 UTC)

Pronóstico

El informe se hizo hace 3 horas y 16 minutos, a las 06:00 UTC
Pronóstico válido del 18 a las 07 UTC al 18 a las 13 UTC
Viento 2 kt con dirección variable
Visibilidad: 6000 m
Evolucionando progresivamente
del 18 a las 07 UTC al 18 a las 09 UTC
Viento 10 kt del suroeste

TAF: DTTF 180600Z 1807/1813 VRB02KT 6000 NSC BECMG 1807/1809 22010KT

Observaciones y pronósticos meteorológicos de más de 4000 aeropuertos (mensajes METAR y TAF).

Los puntos amarillos y rojos representan las estaciones disponibles.

Ponga el ratón en el punto deseado para ver el nombre de la estación.

Haga clic para ver las observaciones y los pronósticos meteorológicos.

Para cambiar el mapa : haga clic en los botones verdes con una cruz de color negro para hacer un zoom, en el botón verde con un guión para alejar o en las flechas verdes para mapas adyacentes.


METAR-TAF: